Time;durP1;ratioP1;P1;durP2;ratioP2;P2;SDS_P1;SDS_P2;PMS_P1;PMS_P2;Temp;Humidity;BMP_temperature;BMP_pressure;BME280_temperature;BME280_humidity;BME280_pressure;Samples;Min_cycle;Max_cycle;Signal;HPM_P1;HPM_P2
2022/01/31 00:02:18;;;;;;;;;;;0.60;99.90;;;;;;5036478;28;19911;-81
2022/01/31 00:04:56;;;;;;;;;;;0.60;99.90;;;;;;5053315;28;19924;-81
2022/01/31 00:07:24;;;;;;;;;;;0.60;99.90;;;;;;5021054;28;20406;-81
2022/01/31 00:09:50;;;;;;;;;;;0.70;99.90;;;;;;5020709;28;20472;-81
2022/01/31 00:12:19;;;;;;;;;;;0.70;99.90;;;;;;5033989;28;19996;-81
2022/01/31 00:14:48;;;;;;;;;;;0.70;99.90;;;;;;5051793;28;19923;-81
2022/01/31 00:17:17;;;;;;;;;;;0.80;99.90;;;;;;5035787;28;19904;-81
2022/01/31 00:19:43;;;;;;;;;;;0.80;99.90;;;;;;5036969;28;20357;-81
2022/01/31 00:22:10;;;;;;;;;;;0.90;99.90;;;;;;5035672;28;19996;-81
2022/01/31 00:24:36;;;;;;;;;;;0.90;99.90;;;;;;5036207;28;19905;-81
2022/01/31 00:27:02;;;;;;;;;;;0.90;99.90;;;;;;5035953;28;19909;-81
2022/01/31 00:29:28;;;;;;;;;;;0.90;99.90;;;;;;5019494;28;19935;-81
2022/01/31 00:31:53;;;;;;;;;;;1.00;99.90;;;;;;5035539;28;19917;-81
2022/01/31 00:34:19;;;;;;;;;;;1.00;99.90;;;;;;5015610;28;19913;-81
2022/01/31 00:36:45;;;;;;;;;;;1.00;99.90;;;;;;5016122;28;19909;-81
2022/01/31 00:39:14;;;;;;;;;;;1.00;99.90;;;;;;5035196;28;19909;-81
2022/01/31 00:41:39;;;;;;;;;;;1.10;99.90;;;;;;5035553;28;19931;-81
2022/01/31 00:44:26;;;;;;;;;;;1.10;99.90;;;;;;5018703;28;19913;-81
2022/01/31 00:47:37;;;;;;;;;;;1.10;99.90;;;;;;5034863;28;19978;-81
2022/01/31 00:49:48;;;;;;;;;;;1.10;99.90;;;;;;5025028;28;19953;-81
2022/01/31 00:52:14;;;;;;;;;;;1.10;99.90;;;;;;5028608;28;19913;-81
2022/01/31 00:54:39;;;;;;;;;;;1.20;99.90;;;;;;5019500;28;19931;-81
2022/01/31 00:57:05;;;;;;;;;;;1.10;99.90;;;;;;5018463;28;19912;-81
2022/01/31 00:59:30;;;;;;;;;;;1.20;99.90;;;;;;5018863;28;19912;-81
2022/01/31 01:01:56;;;;;;;;;;;1.20;99.90;;;;;;5018693;28;19913;-80
2022/01/31 01:04:24;;;;;;;;;;;1.20;99.90;;;;;;5034872;28;19905;-81
2022/01/31 01:06:50;;;;;;;;;;;1.20;99.90;;;;;;5018271;28;19947;-80
2022/01/31 01:09:16;;;;;;;;;;;1.20;99.90;;;;;;5034683;28;19924;-80
2022/01/31 01:11:42;;;;;;;;;;;1.20;99.90;;;;;;5034209;28;19904;-81
2022/01/31 01:14:07;;;;;;;;;;;1.30;99.90;;;;;;5034286;28;19978;-81
2022/01/31 01:16:33;;;;;;;;;;;1.30;99.90;;;;;;5018206;28;19916;-81
2022/01/31 01:19:02;;;;;;;;;;;1.30;99.90;;;;;;5014730;28;20003;-81
2022/01/31 01:21:28;;;;;;;;;;;1.40;99.90;;;;;;5031409;28;19904;-81
2022/01/31 01:23:56;;;;;;;;;;;1.40;99.90;;;;;;5034505;28;19916;-81
2022/01/31 01:26:22;;;;;;;;;;;1.40;99.90;;;;;;5034819;28;19909;-80
2022/01/31 01:28:48;;;;;;;;;;;1.50;99.90;;;;;;5034482;28;19919;-81
2022/01/31 01:31:14;;;;;;;;;;;1.50;99.90;;;;;;5034478;28;19917;-81
2022/01/31 01:33:43;;;;;;;;;;;1.50;99.90;;;;;;5014634;28;19913;-81
2022/01/31 01:36:09;;;;;;;;;;;1.60;99.90;;;;;;5031211;28;20004;-81
2022/01/31 01:38:35;;;;;;;;;;;1.60;99.90;;;;;;5034286;28;20287;-81
2022/01/31 01:41:01;;;;;;;;;;;1.60;99.90;;;;;;5034191;28;19913;-81
2022/01/31 01:43:31;;;;;;;;;;;1.60;99.90;;;;;;5014211;28;19913;-80
2022/01/31 01:45:57;;;;;;;;;;;1.70;99.90;;;;;;5014687;28;20373;-81
2022/01/31 01:48:24;;;;;;;;;;;1.70;99.90;;;;;;5014453;28;19955;-81
2022/01/31 01:50:50;;;;;;;;;;;1.70;99.90;;;;;;5016908;28;19909;-81
2022/01/31 01:53:19;;;;;;;;;;;1.70;99.90;;;;;;5033370;28;19912;-80
2022/01/31 01:55:50;;;;;;;;;;;1.80;99.90;;;;;;5033988;28;19913;-80
2022/01/31 01:58:19;;;;;;;;;;;1.80;99.90;;;;;;5032740;28;19909;-81
2022/01/31 02:01:02;;;;;;;;;;;1.80;99.90;;;;;;5034168;28;19924;-81
2022/01/31 02:03:29;;;;;;;;;;;1.80;99.90;;;;;;5033372;28;19915;-81
2022/01/31 02:05:56;;;;;;;;;;;1.80;99.90;;;;;;5033625;28;19909;-81
2022/01/31 02:08:27;;;;;;;;;;;1.80;99.90;;;;;;5013863;28;19919;-81
2022/01/31 02:10:56;;;;;;;;;;;1.90;99.90;;;;;;5030539;28;19912;-81
2022/01/31 02:13:24;;;;;;;;;;;1.90;99.90;;;;;;5033571;28;19915;-81
2022/01/31 02:15:50;;;;;;;;;;;1.90;99.90;;;;;;5033441;28;19913;-81
2022/01/31 02:18:23;;;;;;;;;;;1.90;99.90;;;;;;5033422;28;19987;-81
2022/01/31 02:20:49;;;;;;;;;;;1.90;99.90;;;;;;5033266;28;19966;-80
2022/01/31 02:23:15;;;;;;;;;;;1.90;99.90;;;;;;5033054;28;19905;-81
2022/01/31 02:25:51;;;;;;;;;;;1.90;99.90;;;;;;5016681;28;19935;-80
2022/01/31 02:28:17;;;;;;;;;;;1.90;99.90;;;;;;5034238;28;20355;-81
2022/01/31 02:30:43;;;;;;;;;;;1.90;99.90;;;;;;5021212;28;19920;-81
2022/01/31 02:33:11;;;;;;;;;;;2.00;99.90;;;;;;5016825;28;19916;-81
2022/01/31 02:35:37;;;;;;;;;;;1.90;99.90;;;;;;5032863;28;19912;-81
2022/01/31 02:38:03;;;;;;;;;;;2.00;99.90;;;;;;5033068;28;19912;-81
2022/01/31 02:40:29;;;;;;;;;;;2.00;99.90;;;;;;5033401;28;20011;-81
2022/01/31 02:42:58;;;;;;;;;;;2.00;99.90;;;;;;5036108;28;19924;-81
2022/01/31 02:45:23;;;;;;;;;;;2.00;99.90;;;;;;5016921;28;19962;-80
2022/01/31 02:47:56;;;;;;;;;;;2.00;99.90;;;;;;5016533;28;19916;-81
2022/01/31 02:50:21;;;;;;;;;;;2.00;99.90;;;;;;5013683;28;19921;-81
2022/01/31 02:52:56;;;;;;;;;;;2.00;99.90;;;;;;5029704;28;19905;-81
2022/01/31 02:55:22;;;;;;;;;;;2.00;99.90;;;;;;5032792;28;19917;-81
2022/01/31 02:57:51;;;;;;;;;;;2.00;99.90;;;;;;5013178;28;20140;-81
2022/01/31 03:00:17;;;;;;;;;;;2.00;99.90;;;;;;5029865;28;19938;-81
2022/01/31 03:02:42;;;;;;;;;;;2.10;99.90;;;;;;5032543;28;19913;-80
2022/01/31 03:05:08;;;;;;;;;;;2.10;99.90;;;;;;5013268;28;20036;-81
2022/01/31 03:07:38;;;;;;;;;;;2.10;99.90;;;;;;5045784;28;19964;-81
2022/01/31 03:10:04;;;;;;;;;;;2.10;99.90;;;;;;5020582;28;19912;-81
2022/01/31 03:12:29;;;;;;;;;;;2.10;99.90;;;;;;5016620;28;20118;-80
2022/01/31 03:14:55;;;;;;;;;;;2.10;99.90;;;;;;5032885;28;19905;-81
2022/01/31 03:17:23;;;;;;;;;;;2.10;99.90;;;;;;5032221;28;19912;-80
2022/01/31 03:19:53;;;;;;;;;;;2.10;99.90;;;;;;5016686;28;19909;-80
2022/01/31 03:22:20;;;;;;;;;;;2.10;99.90;;;;;;5016704;28;19909;-81
2022/01/31 03:24:45;;;;;;;;;;;2.20;99.90;;;;;;5030493;28;19905;-81
2022/01/31 03:27:14;;;;;;;;;;;2.10;99.90;;;;;;5023328;28;19913;-81
2022/01/31 03:29:40;;;;;;;;;;;2.20;99.90;;;;;;5049374;28;19904;-81
2022/01/31 03:32:08;;;;;;;;;;;2.20;99.90;;;;;;5038950;28;19956;-81
2022/01/31 03:34:34;;;;;;;;;;;2.20;99.90;;;;;;5016366;28;19952;-81
2022/01/31 03:37:02;;;;;;;;;;;2.20;99.90;;;;;;5015759;28;19955;-81
2022/01/31 03:39:28;;;;;;;;;;;2.20;99.90;;;;;;5032745;28;20003;-81
2022/01/31 03:41:53;;;;;;;;;;;2.20;99.90;;;;;;5016036;28;19975;-80
2022/01/31 03:44:19;;;;;;;;;;;2.30;99.90;;;;;;5015403;28;20345;-81
2022/01/31 03:46:44;;;;;;;;;;;2.30;99.90;;;;;;5032565;28;19909;-81
2022/01/31 03:49:13;;;;;;;;;;;2.30;99.90;;;;;;5016302;28;19947;-81
2022/01/31 03:51:42;;;;;;;;;;;2.30;99.90;;;;;;5015773;28;19927;-80
2022/01/31 03:54:08;;;;;;;;;;;2.30;99.90;;;;;;5015491;28;19909;-80
2022/01/31 03:56:35;;;;;;;;;;;2.30;99.90;;;;;;5031313;28;19965;-80
2022/01/31 03:59:02;;;;;;;;;;;2.30;99.90;;;;;;5032354;28;20439;-81
2022/01/31 04:01:28;;;;;;;;;;;2.30;99.90;;;;;;5028971;28;19905;-81
2022/01/31 04:03:53;;;;;;;;;;;2.30;99.90;;;;;;5032211;28;20035;-81
2022/01/31 04:06:23;;;;;;;;;;;2.30;99.90;;;;;;5020590;28;19913;-80
2022/01/31 04:08:50;;;;;;;;;;;2.40;99.90;;;;;;5032101;28;19905;-81
2022/01/31 04:11:19;;;;;;;;;;;2.40;99.90;;;;;;5041075;28;19915;-80
2022/01/31 04:13:44;;;;;;;;;;;2.40;99.90;;;;;;5035644;28;19912;-81
2022/01/31 04:16:13;;;;;;;;;;;2.40;99.90;;;;;;5020586;28;20343;-81
2022/01/31 04:18:39;;;;;;;;;;;2.40;99.90;;;;;;5035726;28;20375;-80
2022/01/31 04:21:04;;;;;;;;;;;2.40;99.90;;;;;;5018945;28;19920;-81
2022/01/31 04:23:30;;;;;;;;;;;2.40;99.90;;;;;;5019270;28;19913;-81
2022/01/31 04:26:32;;;;;;;;;;;2.50;99.90;;;;;;5040237;28;19912;-81
2022/01/31 04:28:51;;;;;;;;;;;2.50;99.90;;;;;;5021841;28;20328;-81
2022/01/31 04:33:46;;;;;;;;;;;2.50;99.90;;;;;;5043331;28;19940;-80
2022/01/31 04:36:14;;;;;;;;;;;2.50;99.90;;;;;;5051520;28;19999;-80
2022/01/31 04:38:43;;;;;;;;;;;2.50;99.90;;;;;;5017189;28;19932;-80
2022/01/31 04:41:09;;;;;;;;;;;2.50;99.90;;;;;;5032024;28;19971;-80
2022/01/31 04:43:38;;;;;;;;;;;2.50;99.90;;;;;;5032001;28;19909;-80
2022/01/31 04:46:05;;;;;;;;;;;2.50;99.90;;;;;;5032242;28;20071;-80
2022/01/31 04:48:31;;;;;;;;;;;2.50;99.90;;;;;;5031913;28;20015;-80
2022/01/31 04:50:57;;;;;;;;;;;2.60;99.90;;;;;;5051810;28;19988;-80
2022/01/31 04:53:23;;;;;;;;;;;2.60;99.90;;;;;;5035083;28;19915;-80
2022/01/31 04:55:49;;;;;;;;;;;2.60;99.90;;;;;;5052997;28;19962;-83
2022/01/31 04:58:14;;;;;;;;;;;2.60;99.90;;;;;;5017835;28;20425;-81
2022/01/31 05:00:40;;;;;;;;;;;2.60;99.90;;;;;;5018401;28;19917;-81
2022/01/31 05:03:12;;;;;;;;;;;2.60;99.90;;;;;;5033712;28;19905;-81
2022/01/31 05:05:41;;;;;;;;;;;2.60;99.90;;;;;;5034966;28;19905;-81
2022/01/31 05:08:07;;;;;;;;;;;2.50;99.90;;;;;;5034115;28;19912;-81
2022/01/31 05:10:34;;;;;;;;;;;2.50;99.90;;;;;;5034597;28;20430;-81
2022/01/31 05:13:02;;;;;;;;;;;2.50;99.90;;;;;;5018091;28;19943;-81
2022/01/31 05:15:34;;;;;;;;;;;2.50;99.90;;;;;;5018185;28;19959;-81
2022/01/31 05:18:06;;;;;;;;;;;2.40;99.90;;;;;;5018070;28;20043;-81
2022/01/31 05:20:32;;;;;;;;;;;2.40;99.90;;;;;;5033974;28;19915;-81
2022/01/31 05:22:57;;;;;;;;;;;2.40;99.90;;;;;;5033965;28;19958;-81
2022/01/31 05:25:23;;;;;;;;;;;2.30;99.90;;;;;;5034240;28;20342;-81
2022/01/31 05:27:49;;;;;;;;;;;2.30;99.90;;;;;;5017683;28;19913;-81
2022/01/31 05:30:16;;;;;;;;;;;2.30;99.90;;;;;;5017050;28;20375;-81
2022/01/31 05:32:52;;;;;;;;;;;2.40;99.90;;;;;;5033391;28;19912;-81
2022/01/31 05:35:17;;;;;;;;;;;2.30;99.90;;;;;;5033998;28;19909;-82
2022/01/31 05:37:43;;;;;;;;;;;2.30;99.90;;;;;;5017189;28;20310;-81
2022/01/31 05:40:09;;;;;;;;;;;2.30;99.90;;;;;;5034365;28;19913;-82
2022/01/31 05:42:34;;;;;;;;;;;2.30;99.90;;;;;;5017350;28;20427;-82
2022/01/31 05:45:01;;;;;;;;;;;2.20;99.90;;;;;;5034043;28;19908;-81
2022/01/31 05:47:26;;;;;;;;;;;2.20;99.90;;;;;;5017248;28;19987;-81
2022/01/31 05:49:52;;;;;;;;;;;2.20;99.90;;;;;;5017556;28;19920;-81
2022/01/31 05:52:17;;;;;;;;;;;2.20;99.90;;;;;;5051709;28;19912;-81
2022/01/31 05:54:52;;;;;;;;;;;2.20;99.90;;;;;;5017306;28;19912;-82
2022/01/31 05:57:18;;;;;;;;;;;2.20;99.90;;;;;;5017408;28;19917;-81
2022/01/31 05:59:44;;;;;;;;;;;2.20;99.90;;;;;;5017413;28;19916;-81
2022/01/31 06:02:09;;;;;;;;;;;2.10;99.90;;;;;;5017064;28;19978;-81
2022/01/31 06:04:35;;;;;;;;;;;2.10;99.90;;;;;;5017270;28;19909;-81
2022/01/31 06:07:01;;;;;;;;;;;2.10;99.90;;;;;;5033382;28;20268;-82
2022/01/31 06:09:27;;;;;;;;;;;2.10;99.90;;;;;;4997150;28;20052;-81
2022/01/31 06:11:56;;;;;;;;;;;2.10;99.90;;;;;;5030185;28;19909;-82
2022/01/31 06:14:22;;;;;;;;;;;2.10;99.90;;;;;;5030157;28;19913;-81
2022/01/31 06:16:47;;;;;;;;;;;2.10;99.90;;;;;;5029857;28;19916;-81
2022/01/31 06:19:13;;;;;;;;;;;2.10;99.90;;;;;;5033358;28;20561;-81
2022/01/31 06:21:39;;;;;;;;;;;2.10;99.90;;;;;;5033295;28;19905;-81
2022/01/31 06:24:09;;;;;;;;;;;2.10;99.90;;;;;;5033173;28;19915;-81
2022/01/31 06:26:44;;;;;;;;;;;2.10;99.90;;;;;;5032977;28;19904;-81
2022/01/31 06:29:10;;;;;;;;;;;2.10;99.90;;;;;;5033353;28;19954;-81
2022/01/31 06:31:41;;;;;;;;;;;2.10;99.90;;;;;;5016846;28;19944;-81
2022/01/31 06:34:10;;;;;;;;;;;2.10;99.90;;;;;;5031592;28;19905;-81
2022/01/31 06:36:35;;;;;;;;;;;2.10;99.90;;;;;;5016760;28;19919;-81
2022/01/31 06:39:10;;;;;;;;;;;2.10;99.90;;;;;;5032959;28;19904;-81
2022/01/31 06:41:36;;;;;;;;;;;2.10;99.90;;;;;;4996902;28;20356;-82
2022/01/31 06:44:01;;;;;;;;;;;2.10;99.90;;;;;;5013278;28;19905;-81
2022/01/31 06:46:36;;;;;;;;;;;2.10;99.90;;;;;;5029756;28;19909;-81
2022/01/31 06:49:05;;;;;;;;;;;2.20;99.90;;;;;;5029777;28;19917;-81
2022/01/31 06:51:31;;;;;;;;;;;2.20;99.90;;;;;;5013123;28;19956;-81
2022/01/31 06:53:57;;;;;;;;;;;2.20;99.90;;;;;;5031480;28;19960;-82
2022/01/31 06:56:29;;;;;;;;;;;2.20;99.90;;;;;;5032808;28;20295;-82
2022/01/31 06:58:58;;;;;;;;;;;2.20;99.90;;;;;;5032667;28;19960;-81
2022/01/31 07:01:25;;;;;;;;;;;2.30;99.90;;;;;;5032625;28;19916;-81
2022/01/31 07:03:57;;;;;;;;;;;2.30;99.90;;;;;;5032768;28;20367;-81
2022/01/31 07:06:24;;;;;;;;;;;2.30;99.90;;;;;;5032959;28;19916;-82
2022/01/31 07:08:53;;;;;;;;;;;2.30;99.90;;;;;;5032350;28;20387;-81
2022/01/31 07:11:29;;;;;;;;;;;2.40;99.90;;;;;;5032710;28;19905;-81
2022/01/31 07:14:04;;;;;;;;;;;2.40;99.90;;;;;;5032546;28;19904;-81
2022/01/31 07:16:30;;;;;;;;;;;2.40;99.90;;;;;;5032686;28;19956;-81
2022/01/31 07:19:03;;;;;;;;;;;2.40;99.90;;;;;;5032337;28;20023;-81
2022/01/31 07:21:35;;;;;;;;;;;2.40;99.90;;;;;;5017199;28;19936;-81
2022/01/31 07:26:29;;;;;;;;;;;2.50;99.90;;;;;;5050396;28;19939;-81
2022/01/31 07:29:01;;;;;;;;;;;2.50;99.90;;;;;;5015976;28;19916;-81
2022/01/31 07:31:26;;;;;;;;;;;2.60;99.90;;;;;;5016695;28;20436;-82
2022/01/31 07:33:52;;;;;;;;;;;2.60;99.90;;;;;;5015983;28;19912;-81
2022/01/31 07:36:17;;;;;;;;;;;2.60;99.90;;;;;;5032309;28;19909;-81
2022/01/31 07:38:46;;;;;;;;;;;2.60;99.90;;;;;;5032297;28;19904;-81
2022/01/31 07:41:14;;;;;;;;;;;2.60;99.90;;;;;;5016286;28;19916;-82
2022/01/31 07:43:43;;;;;;;;;;;2.70;99.90;;;;;;5015928;28;20007;-81
2022/01/31 07:46:10;;;;;;;;;;;2.70;99.90;;;;;;5019557;28;19919;-81
2022/01/31 07:48:36;;;;;;;;;;;2.70;99.90;;;;;;5019281;28;19971;-81
2022/01/31 07:51:01;;;;;;;;;;;2.70;99.90;;;;;;5036042;28;20617;-82
2022/01/31 07:53:27;;;;;;;;;;;2.80;99.90;;;;;;5036193;28;19911;-81
2022/01/31 07:55:52;;;;;;;;;;;2.80;99.90;;;;;;5019454;28;19913;-81
2022/01/31 07:58:21;;;;;;;;;;;2.90;99.90;;;;;;5019512;28;19912;-82
2022/01/31 08:00:49;;;;;;;;;;;3.00;99.90;;;;;;5019862;28;19909;-81
2022/01/31 08:03:15;;;;;;;;;;;3.00;99.90;;;;;;5035872;28;19905;-81
2022/01/31 08:05:41;;;;;;;;;;;3.10;99.90;;;;;;5036007;28;19911;-81
2022/01/31 08:08:06;;;;;;;;;;;3.20;99.90;;;;;;5035613;28;19934;-81
2022/01/31 08:10:37;;;;;;;;;;;3.20;99.90;;;;;;5035696;28;19912;-81
2022/01/31 08:13:04;;;;;;;;;;;3.30;99.90;;;;;;5019899;28;19999;-82
2022/01/31 08:15:30;;;;;;;;;;;3.30;99.90;;;;;;5035530;28;19951;-81
2022/01/31 08:17:56;;;;;;;;;;;3.40;99.90;;;;;;5018803;28;19913;-81
2022/01/31 08:20:24;;;;;;;;;;;3.40;99.90;;;;;;5019567;28;19955;-82
2022/01/31 08:22:50;;;;;;;;;;;3.40;99.90;;;;;;5019037;28;20027;-82
2022/01/31 08:25:16;;;;;;;;;;;3.40;99.90;;;;;;5018814;28;20032;-82
2022/01/31 08:27:43;;;;;;;;;;;3.40;99.90;;;;;;5035146;28;20420;-82
2022/01/31 08:30:14;;;;;;;;;;;3.40;99.90;;;;;;5019039;28;19944;-81
2022/01/31 08:32:58;;;;;;;;;;;3.30;99.90;;;;;;5019457;28;19909;-81
2022/01/31 08:38:11;;;;;;;;;;;3.40;99.90;;;;;;5018732;28;20383;-82
2022/01/31 08:40:58;;;;;;;;;;;3.40;99.90;;;;;;5001932;28;19920;-82
2022/01/31 08:43:27;;;;;;;;;;;3.50;99.90;;;;;;5021259;28;19963;-84
2022/01/31 08:45:56;;;;;;;;;;;3.50;99.90;;;;;;5035321;28;20071;-82
2022/01/31 08:48:30;;;;;;;;;;;3.60;99.90;;;;;;5019211;28;19959;-82
2022/01/31 08:50:57;;;;;;;;;;;3.60;99.90;;;;;;5039408;28;19919;-83
2022/01/31 08:53:24;;;;;;;;;;;3.60;99.90;;;;;;5018726;28;20007;-82
2022/01/31 08:55:51;;;;;;;;;;;3.70;99.90;;;;;;5034796;28;20024;-82
2022/01/31 08:58:17;;;;;;;;;;;3.70;99.90;;;;;;5034475;28;19939;-82
2022/01/31 09:00:57;;;;;;;;;;;3.80;99.90;;;;;;5018544;28;19958;-83
2022/01/31 09:03:55;;;;;;;;;;;3.90;99.90;;;;;;5034907;28;19931;-83
2022/01/31 09:06:34;;;;;;;;;;;3.90;99.90;;;;;;5015053;28;19905;-82
2022/01/31 09:09:00;;;;;;;;;;;4.00;99.90;;;;;;5031615;28;19909;-83
2022/01/31 09:11:29;;;;;;;;;;;4.00;99.90;;;;;;5031553;28;19959;-82
2022/01/31 09:13:55;;;;;;;;;;;4.00;99.90;;;;;;5031259;28;19909;-82
2022/01/31 09:16:22;;;;;;;;;;;4.00;99.90;;;;;;5031381;28;20272;-82
2022/01/31 09:18:48;;;;;;;;;;;4.00;99.90;;;;;;5031056;28;19912;-84
2022/01/31 09:21:15;;;;;;;;;;;4.00;99.90;;;;;;5031186;28;19943;-85
2022/01/31 09:23:40;;;;;;;;;;;4.00;99.90;;;;;;5034235;28;20318;-83
2022/01/31 09:26:12;;;;;;;;;;;4.00;99.90;;;;;;5018175;28;20004;-83
2022/01/31 09:28:38;;;;;;;;;;;4.00;99.90;;;;;;5034076;28;19907;-83
2022/01/31 09:31:04;;;;;;;;;;;4.00;99.90;;;;;;5017487;28;19924;-82
2022/01/31 09:33:30;;;;;;;;;;;4.00;99.90;;;;;;5034546;28;20394;-83
2022/01/31 09:35:55;;;;;;;;;;;4.00;99.90;;;;;;5034339;28;19908;-82
2022/01/31 09:38:24;;;;;;;;;;;4.00;99.90;;;;;;5017636;28;19924;-82
2022/01/31 09:40:50;;;;;;;;;;;4.00;99.90;;;;;;5018077;28;19920;-82
2022/01/31 09:45:58;;;;;;;;;;;4.00;99.90;;;;;;5052223;28;19911;-82
2022/01/31 09:48:43;;;;;;;;;;;4.00;99.90;;;;;;5033891;28;19992;-81
2022/01/31 09:51:19;;;;;;;;;;;4.00;99.90;;;;;;5034009;28;19905;-85
2022/01/31 09:53:47;;;;;;;;;;;3.90;99.90;;;;;;5017490;28;19908;-82
2022/01/31 09:56:15;;;;;;;;;;;4.00;99.90;;;;;;5017546;28;19921;-82
2022/01/31 09:58:48;;;;;;;;;;;4.00;99.90;;;;;;5033042;28;19911;-82
2022/01/31 10:01:19;;;;;;;;;;;4.00;99.90;;;;;;5016976;28;20387;-83
2022/01/31 10:03:44;;;;;;;;;;;4.00;99.90;;;;;;5033742;28;20367;-82
2022/01/31 10:06:36;;;;;;;;;;;4.10;99.90;;;;;;5033951;28;19912;-82
2022/01/31 10:09:14;;;;;;;;;;;4.10;99.90;;;;;;5029645;28;19905;-82
2022/01/31 10:16:54;;;;;;;;;;;4.20;99.90;;;;;;5050682;28;19974;-83
2022/01/31 10:19:20;;;;;;;;;;;4.20;99.90;;;;;;5017293;28;19947;-82
2022/01/31 10:21:58;;;;;;;;;;;4.20;99.90;;;;;;5017259;28;20276;-82
2022/01/31 10:24:25;;;;;;;;;;;4.20;99.90;;;;;;5017386;28;20401;-81
2022/01/31 10:26:54;;;;;;;;;;;4.20;99.90;;;;;;5033345;28;19991;-82
2022/01/31 10:29:21;;;;;;;;;;;4.20;99.90;;;;;;5033524;28;19905;-82
2022/01/31 10:31:56;;;;;;;;;;;4.20;99.90;;;;;;5033349;28;20414;-82
2022/01/31 10:34:24;;;;;;;;;;;4.20;99.90;;;;;;5033285;28;19905;-82
2022/01/31 10:36:53;;;;;;;;;;;4.20;99.90;;;;;;5016853;28;19920;-82
2022/01/31 10:53:45;;;;;;;;;;;4.40;99.90;;;;;;5051185;28;19904;-82
2022/01/31 10:56:11;;;;;;;;;;;4.30;99.90;;;;;;5033120;28;20011;-82
2022/01/31 10:59:03;;;;;;;;;;;4.40;99.90;;;;;;5032802;28;19912;-83
2022/01/31 11:01:29;;;;;;;;;;;4.30;99.90;;;;;;5032992;28;20363;-82
2022/01/31 11:03:58;;;;;;;;;;;4.30;99.90;;;;;;5016413;28;19909;-82
2022/01/31 11:06:30;;;;;;;;;;;4.30;99.90;;;;;;5032956;28;20524;-82
2022/01/31 11:09:00;;;;;;;;;;;4.40;99.90;;;;;;5017076;28;19915;-82
2022/01/31 11:11:25;;;;;;;;;;;4.40;99.90;;;;;;5032569;28;19916;-82
2022/01/31 11:13:52;;;;;;;;;;;4.40;99.90;;;;;;5016699;28;19917;-82
2022/01/31 11:16:18;;;;;;;;;;;4.50;99.90;;;;;;5016387;28;19917;-81
2022/01/31 11:18:47;;;;;;;;;;;4.40;99.90;;;;;;5016060;28;19909;-82
2022/01/31 11:21:13;;;;;;;;;;;4.50;99.90;;;;;;5036130;28;20378;-82
2022/01/31 11:23:41;;;;;;;;;;;4.50;99.90;;;;;;5020201;28;20007;-82
2022/01/31 11:26:08;;;;;;;;;;;4.60;99.90;;;;;;5036806;28;19955;-84
2022/01/31 11:28:36;;;;;;;;;;;4.60;99.90;;;;;;5036370;28;19909;-82
2022/01/31 11:31:06;;;;;;;;;;;4.60;99.90;;;;;;5020484;28;20370;-82
2022/01/31 11:33:33;;;;;;;;;;;4.70;99.90;;;;;;5020420;28;20287;-82
2022/01/31 12:58:48;;;;;;;;;;;5.00;99.90;;;;;;5052323;28;19911;-83
2022/01/31 13:01:15;;;;;;;;;;;5.00;99.90;;;;;;4998856;28;19952;-81
2022/01/31 13:03:42;;;;;;;;;;;5.10;99.90;;;;;;5018949;28;19919;-82
2022/01/31 13:06:26;;;;;;;;;;;5.10;99.90;;;;;;5035565;28;19958;-81
2022/01/31 13:08:52;;;;;;;;;;;5.10;99.90;;;;;;5035345;28;19912;-81
2022/01/31 13:11:18;;;;;;;;;;;5.00;99.90;;;;;;5018703;28;19966;-81
2022/01/31 13:13:45;;;;;;;;;;;5.00;99.90;;;;;;5035245;28;19947;-82
2022/01/31 13:16:12;;;;;;;;;;;5.00;99.90;;;;;;5035277;28;20019;-83
2022/01/31 13:18:38;;;;;;;;;;;5.10;99.90;;;;;;5034713;28;20381;-81
2022/01/31 13:21:13;;;;;;;;;;;5.00;99.90;;;;;;5034936;28;19913;-81
2022/01/31 13:23:40;;;;;;;;;;;5.00;99.90;;;;;;5035155;28;19904;-81
2022/01/31 13:26:07;;;;;;;;;;;5.00;99.90;;;;;;5018728;28;19916;-82
2022/01/31 13:28:34;;;;;;;;;;;5.00;99.90;;;;;;5033928;28;20389;-82
2022/01/31 13:31:09;;;;;;;;;;;5.00;99.90;;;;;;5034918;28;19944;-81
2022/01/31 13:33:45;;;;;;;;;;;5.10;99.90;;;;;;5015270;28;19905;-82
2022/01/31 13:36:11;;;;;;;;;;;5.10;99.90;;;;;;5031673;28;19963;-81
2022/01/31 13:38:37;;;;;;;;;;;5.10;99.90;;;;;;5031045;28;19909;-82
2022/01/31 13:41:03;;;;;;;;;;;5.10;99.90;;;;;;5014578;28;20350;-82
2022/01/31 13:43:40;;;;;;;;;;;5.10;99.90;;;;;;5014639;28;19905;-82
2022/01/31 13:48:54;;;;;;;;;;;5.10;99.90;;;;;;5035190;28;19916;-82
2022/01/31 13:51:33;;;;;;;;;;;5.00;99.90;;;;;;5034578;28;19904;-81
2022/01/31 13:54:02;;;;;;;;;;;5.00;99.90;;;;;;5018257;28;19958;-83
2022/01/31 13:56:34;;;;;;;;;;;5.00;99.90;;;;;;5014670;28;19916;-82
2022/01/31 13:59:06;;;;;;;;;;;4.90;99.90;;;;;;5014622;28;19909;-83
2022/01/31 14:01:32;;;;;;;;;;;4.90;99.90;;;;;;5030925;28;19909;-83
2022/01/31 14:03:59;;;;;;;;;;;4.90;99.90;;;;;;5014230;28;19920;-83
2022/01/31 14:06:25;;;;;;;;;;;4.90;99.90;;;;;;5031093;28;19939;-83
2022/01/31 14:09:00;;;;;;;;;;;4.90;99.90;;;;;;5030658;28;19923;-83
2022/01/31 14:11:27;;;;;;;;;;;4.80;99.90;;;;;;5030748;28;19905;-83
2022/01/31 14:13:57;;;;;;;;;;;4.80;99.90;;;;;;5030251;28;20003;-82
2022/01/31 14:16:28;;;;;;;;;;;4.80;99.90;;;;;;5029817;28;19909;-83
2022/01/31 14:19:02;;;;;;;;;;;4.80;99.90;;;;;;5030311;28;20376;-83
2022/01/31 14:21:30;;;;;;;;;;;4.80;99.90;;;;;;5030799;28;19908;-83
2022/01/31 14:23:57;;;;;;;;;;;4.70;99.90;;;;;;5014200;28;19905;-83
2022/01/31 14:26:43;;;;;;;;;;;4.70;99.90;;;;;;5030623;28;19912;-83
2022/01/31 14:29:10;;;;;;;;;;;4.70;99.90;;;;;;5013675;28;20007;-83
2022/01/31 14:31:39;;;;;;;;;;;4.70;99.90;;;;;;5030798;28;19904;-82
2022/01/31 14:34:07;;;;;;;;;;;4.70;99.90;;;;;;5030364;28;19916;-82
2022/01/31 14:36:51;;;;;;;;;;;4.70;99.90;;;;;;5030352;28;19913;-83
2022/01/31 14:42:37;;;;;;;;;;;4.60;99.90;;;;;;5031998;28;19905;-83
2022/01/31 14:47:47;;;;;;;;;;;4.50;99.90;;;;;;5031874;28;19916;-83
2022/01/31 14:50:18;;;;;;;;;;;4.50;99.90;;;;;;5030680;28;19905;-83
2022/01/31 14:52:45;;;;;;;;;;;4.40;99.90;;;;;;5029976;28;19951;-82
2022/01/31 14:55:16;;;;;;;;;;;4.40;99.90;;;;;;5029281;28;19909;-82
2022/01/31 14:57:42;;;;;;;;;;;4.30;99.90;;;;;;5029723;28;19917;-83
2022/01/31 15:00:09;;;;;;;;;;;4.30;99.90;;;;;;5030158;28;19905;-82
2022/01/31 15:02:35;;;;;;;;;;;4.20;99.90;;;;;;5029229;28;19905;-83
2022/01/31 15:05:14;;;;;;;;;;;4.20;99.90;;;;;;5012855;28;19944;-82
2022/01/31 15:07:43;;;;;;;;;;;4.20;99.90;;;;;;5029520;28;19909;-82
2022/01/31 15:10:10;;;;;;;;;;;4.10;99.90;;;;;;5029046;28;19913;-82
2022/01/31 15:12:38;;;;;;;;;;;4.10;99.90;;;;;;5029631;28;20431;-84
2022/01/31 15:15:04;;;;;;;;;;;4.10;99.90;;;;;;5029808;28;19947;-82
2022/01/31 15:17:31;;;;;;;;;;;4.10;99.90;;;;;;5029370;28;20004;-83
2022/01/31 15:20:00;;;;;;;;;;;4.10;99.90;;;;;;5014123;28;19920;-81
2022/01/31 15:22:27;;;;;;;;;;;4.10;99.90;;;;;;5030959;28;19913;-80
2022/01/31 15:24:55;;;;;;;;;;;4.10;99.90;;;;;;5026538;28;19915;-81
2022/01/31 15:27:21;;;;;;;;;;;4.10;99.90;;;;;;5034559;28;20349;-80
2022/01/31 15:29:46;;;;;;;;;;;4.10;99.90;;;;;;5034743;28;19905;-80
2022/01/31 15:32:12;;;;;;;;;;;4.10;99.90;;;;;;5033802;28;19909;-80
2022/01/31 15:34:38;;;;;;;;;;;4.10;99.90;;;;;;5017873;28;19935;-80
2022/01/31 15:37:05;;;;;;;;;;;4.10;99.90;;;;;;5034211;28;19924;-79
2022/01/31 15:39:36;;;;;;;;;;;4.10;99.90;;;;;;5018174;28;20355;-80
2022/01/31 15:42:24;;;;;;;;;;;4.10;99.90;;;;;;5033771;28;19912;-80
2022/01/31 15:44:57;;;;;;;;;;;4.10;99.90;;;;;;5034855;28;19955;-80
2022/01/31 15:47:23;;;;;;;;;;;4.10;99.90;;;;;;5019112;28;19919;-80
2022/01/31 15:49:49;;;;;;;;;;;4.10;99.90;;;;;;5034146;28;19905;-81
2022/01/31 15:52:17;;;;;;;;;;;4.10;99.90;;;;;;5034019;28;19908;-81
2022/01/31 15:54:43;;;;;;;;;;;4.10;99.90;;;;;;5018857;28;20260;-80
2022/01/31 15:57:11;;;;;;;;;;;4.10;99.90;;;;;;5034285;28;19916;-80
2022/01/31 15:59:37;;;;;;;;;;;4.10;99.90;;;;;;5018018;28;19912;-80
2022/01/31 16:02:09;;;;;;;;;;;4.10;99.90;;;;;;5034747;28;19916;-80
2022/01/31 16:04:35;;;;;;;;;;;4.10;99.90;;;;;;5018559;28;20015;-80
2022/01/31 16:07:01;;;;;;;;;;;4.10;99.90;;;;;;5020588;28;19909;-81
2022/01/31 16:09:27;;;;;;;;;;;4.10;99.90;;;;;;5036619;28;19912;-80
2022/01/31 16:12:04;;;;;;;;;;;4.10;99.90;;;;;;5033140;28;20364;-80
2022/01/31 16:14:33;;;;;;;;;;;4.10;99.90;;;;;;5034920;28;20288;-81
2022/01/31 16:16:58;;;;;;;;;;;4.10;99.90;;;;;;5048135;28;19991;-80
2022/01/31 16:19:24;;;;;;;;;;;4.00;99.90;;;;;;5034947;28;19940;-81
2022/01/31 16:21:50;;;;;;;;;;;4.00;99.90;;;;;;5040920;28;19912;-81
2022/01/31 16:24:20;;;;;;;;;;;4.00;99.90;;;;;;5020809;28;20393;-80
2022/01/31 16:26:46;;;;;;;;;;;4.00;99.90;;;;;;5020362;28;19908;-79
2022/01/31 16:29:12;;;;;;;;;;;4.00;99.90;;;;;;5021774;28;19909;-79
2022/01/31 16:31:37;;;;;;;;;;;4.10;99.90;;;;;;5021033;28;19927;-80
2022/01/31 16:34:06;;;;;;;;;;;4.00;99.90;;;;;;5020842;28;19913;-79
2022/01/31 16:36:38;;;;;;;;;;;4.00;99.90;;;;;;5020481;28;19917;-80
2022/01/31 16:39:04;;;;;;;;;;;4.10;99.90;;;;;;5037385;28;19917;-80
2022/01/31 16:41:32;;;;;;;;;;;4.10;99.90;;;;;;5037621;28;19909;-80